Flight Track Log - Related Links

Times and Time Zones

All times are in EDT time to prevent confusion due to time zone crossing. See the N693EE flight status page for this flight to view local times or setup timezone preferences in your user account.

Time Position Orientation Groundspeed Altitude Reporting Facility
EDT Latitude Longitude Course Direction KTS MPH feet Rate Location/Type
Wed 09:31:21 PM 35.9072 -115.1467 190° South 140 161 4,800  Level Los Angeles Center
Wed 09:32:10 PM 35.8758 -115.1517 187° South 142 163 5,800 1,448 Climbing Los Angeles Center
Wed 09:33:17 PM 35.8383 -115.1375 163° South 159 183 7,600 1,608 Climbing Los Angeles Center
Wed 09:33:47 PM 35.8358 -115.1097 96° East 157 181 8,400 1,630 Climbing Los Angeles Center
Wed 09:34:49 PM 35.8217 -115.0586 109° East 158 182 10,100 1,571 Climbing Los Angeles Center
Wed 09:35:53 PM 35.8069 -115.0061 109° East 160 184 11,700 1,597 Climbing Los Angeles Center
Wed 09:36:53 PM 35.7897 -114.9528 112° Southeast 165 190 13,400 1,574 Climbing Los Angeles Center
Wed 09:37:55 PM 35.7819 -114.8817 98° East 171 197 14,900 732 Climbing Los Angeles Center
Wed 09:38:56 PM 35.7703 -114.8208 103° East 206 237 14,900  Level Los Angeles Center
Wed 09:40:11 PM 35.7569 -114.7169 99° East 253 291 14,900  Level Los Angeles Center
Wed 09:41:13 PM 35.7469 -114.6108 97° East 259 298 14,900 871 Level Los Angeles Center
Wed 09:42:15 PM 35.7294 -114.5344 106° East 231 266 16,700 1,694 Climbing Los Angeles Center
Wed 09:43:17 PM 35.6950 -114.4828 129° Southeast 194 223 18,400 1,415 Climbing Los Angeles Center
Wed 09:44:18 PM 35.6556 -114.4339 135° Southeast 200 230 19,600 774 Climbing Los Angeles Center
Wed 09:45:21 PM 35.6050 -114.3686 134° Southeast 222 255 20,000 194 Climbing Los Angeles Center
Wed 09:46:22 PM 35.5539 -114.3053 135° Southeast 254 292 20,000  Level Los Angeles Center
Wed 09:47:24 PM 35.5056 -114.2436 134° Southeast 269 310 20,000  Level Los Angeles Center
Wed 09:48:25 PM 35.4639 -114.1906 134° Southeast 273 314 20,000  Level Los Angeles Center
Wed 09:49:28 PM 35.3936 -114.1036 135° Southeast 275 316 20,000 48 Level Los Angeles Center
Wed 09:50:29 PM 35.3394 -114.0350 134° Southeast 278 320 20,100 683 Climbing Los Angeles Center
Wed 09:51:31 PM 35.3003 -113.9847 134° Southeast 266 306 21,400 1,355 Climbing Los Angeles Center
Wed 09:52:33 PM 35.2611 -113.9058 121° Southeast 234 269 22,900 774 Climbing Los Angeles Center
Wed 09:53:35 PM 35.2567 -113.8261 94° East 238 274 23,000 48 Climbing Los Angeles Center
Wed 09:54:38 PM 35.2508 -113.7350 94° East 266 306 23,000  Level Los Angeles Center
Wed 09:55:39 PM 35.2456 -113.6231 93° East 275 316 23,000  Level Los Angeles Center
Wed 09:56:52 PM 35.2422 -113.5278 92° East 282 325 23,000  Level Los Angeles Center
Wed 09:57:55 PM 35.2372 -113.4142 93° East 282 325 23,000  Level Los Angeles Center
Wed 09:58:56 PM 35.2322 -113.3189 94° East 284 327 23,000  Level Los Angeles Center
Wed 09:59:58 PM 35.2269 -113.2081 93° East 278 320 23,000  Level Los Angeles Center
Wed 10:00:59 PM 35.2231 -113.1325 94° East 277 319 23,000  Level Los Angeles Center
Wed 10:02:02 PM 35.2181 -113.0186 93° East 280 322 23,000  Level Los Angeles Center
Wed 10:03:42 PM 35.2103 -112.8711 94° East 281 323 23,000  Level Albuquerque Center
Wed 10:04:43 PM 35.1981 -112.7614 98° East 282 325 23,000  Level Albuquerque Center
Wed 10:05:45 PM 35.1433 -112.6925 134° Southeast 283 326 23,000  Level Albuquerque Center
Wed 10:06:46 PM 35.0914 -112.6214 132° Southeast 282 325 23,000  Level Albuquerque Center
Wed 10:07:48 PM 35.0408 -112.5500 131° Southeast 280 322 23,000  Level Albuquerque Center
Wed 10:08:49 PM 34.9897 -112.4789 131° Southeast 280 322 23,000  Level Albuquerque Center
Wed 10:09:51 PM 34.9406 -112.4089 131° Southeast 276 318 23,000 -439 Level Albuquerque Center
Wed 10:10:52 PM 34.8792 -112.3211 130° Southeast 282 325 22,100 -1,512 Descending Albuquerque Center
Wed 10:11:54 PM 34.8206 -112.2408 132° Southeast 308 354 19,900 -1,707 Descending Albuquerque Center
Wed 10:12:55 PM 34.7617 -112.1569 130° Southeast 324 373 18,600 -1,220 Descending Albuquerque Center
Wed 10:13:57 PM 34.7008 -112.0717 131° Southeast 314 361 17,400 -1,073 Descending Albuquerque Center
Wed 10:14:58 PM 34.6458 -111.9939 131° Southeast 306 352 16,400 -976 Descending Albuquerque Center
Wed 10:16:00 PM 34.5894 -111.9181 132° Southeast 303 349 15,400 -927 Descending Albuquerque Center
Wed 10:17:01 PM 34.5075 -111.9081 174° South 294 338 14,500 -1,230 Descending Albuquerque Center
Wed 10:18:02 PM 34.4250 -111.9086 180° South 295 339 12,900 -1,268 Descending Albuquerque Center
Wed 10:19:04 PM 34.3439 -111.9144 183° South 295 339 11,900 -976 Descending Albuquerque Center
Wed 10:20:05 PM 34.2625 -111.9189 183° South 293 337 10,900 -488 Descending Albuquerque Center
Wed 10:21:07 PM 34.1872 -111.9231 183° South 275 316 10,900 -244 Level Albuquerque Center
Wed 10:22:08 PM 34.1061 -111.9253 181° South 244 281 10,400 -787 Descending Albuquerque Center
Wed 10:23:09 PM 34.0303 -111.9219 178° South 274 315 9,300 -1,073 Descending Albuquerque Center
Wed 10:24:11 PM 33.9575 -111.9200 179° South 268 308 8,200 -683 Descending Albuquerque Center
Wed 10:25:12 PM 33.8856 -111.9186 179° South 264 304 7,900 -683 Descending Albuquerque Center
Wed 10:26:14 PM 33.8133 -111.9161 178° South 262 302 6,800 -1,220 Descending Albuquerque Center
Wed 10:27:15 PM 33.7489 -111.9133 178° South 232 267 5,400 -1,610 Descending Albuquerque Center
Wed 10:28:17 PM 33.6975 -111.8869 157° South 170 196 3,500 -1,463 Descending Albuquerque Center
Wed 10:29:18 PM 33.6603 -111.8708 160° South 152 175 2,400 -927 Descending Albuquerque Center
Wed 10:30:20 PM 33.6344 -111.8986 222° Southwest 136 157 1,600 -774 Descending Albuquerque Center
Wed 10:32:00 PM 33.6229 -111.9105 180° South  Level Estimated

Login

Don't have an account? Register now (free) for customized features, flight alerts, and more!